Terminal Aerodrome Forecast
Issued by NWS

Home | Current Version | Previous Version | Graphics & Text | Print | Product List | Glossary On
Versions: 1 2 3 4 5 6 7 8 9 10 11 12 13 14 15 16
000
FTUS43 KABR 152300
TAFATY
TAF
KATY 152338Z 1600/1624 15018G26KT P6SM OVC060
     FM160300 16015KT P6SM OVC050
     FM160900 18007KT P6SM OVC020
     FM161800 VRB05KT P6SM BKN050=

USA.gov is the U.S. government's official web portal to all federal, state and local government web resources and services.